Time;durP1;ratioP1;P1;durP2;ratioP2;P2;SDS_P1;SDS_P2;PMS_P1;PMS_P2;Temp;Humidity;BMP_temperature;BMP_pressure;BME280_temperature;BME280_humidity;BME280_pressure;Samples;Min_cycle;Max_cycle;Signal;HPM_P1;HPM_P2
2021/09/27 00:01:39;;;;;;;10.63;8.43;;;;;;;19.93;nan;101044.81;5052854;28;20164;-71
2021/09/27 00:04:05;;;;;;;9.10;7.90;;;;;;;19.91;nan;101047.66;5051890;28;20250;-70
2021/09/27 00:06:30;;;;;;;9.77;8.60;;;;;;;19.36;nan;101047.06;5051495;28;20552;-71
2021/09/27 00:08:56;;;;;;;9.87;8.27;;;;;;;19.06;nan;101057.78;5052857;28;20179;-72
2021/09/27 00:11:24;;;;;;;9.87;7.83;;;;;;;19.01;nan;101052.78;5052694;28;20192;-71
2021/09/27 00:13:53;;;;;;;10.70;8.23;;;;;;;18.92;nan;101066.19;5052981;28;20187;-72
2021/09/27 00:16:19;;;;;;;9.90;8.20;;;;;;;18.85;nan;101051.47;5051519;28;20174;-71
2021/09/27 00:18:45;;;;;;;9.60;8.20;;;;;;;18.66;nan;101063.00;5051751;28;20641;-72
2021/09/27 00:21:17;;;;;;;12.60;9.00;;;;;;;18.70;nan;101064.44;5052845;28;20218;-70
2021/09/27 00:23:42;;;;;;;11.60;8.20;;;;;;;18.49;nan;101063.47;5052041;28;20270;-72
2021/09/27 00:26:07;;;;;;;9.60;8.40;;;;;;;18.41;nan;101054.16;5051921;28;20251;-72
2021/09/27 00:28:33;;;;;;;9.63;8.50;;;;;;;18.52;nan;101055.97;5053213;28;20542;-71
2021/09/27 00:30:58;;;;;;;11.00;8.50;;;;;;;18.66;nan;101053.03;5051837;28;20199;-71
2021/09/27 00:33:25;;;;;;;8.80;7.90;;;;;;;19.00;nan;101055.63;5051536;28;20692;-71
2021/09/27 00:35:51;;;;;;;9.00;7.83;;;;;;;19.01;nan;101057.34;5034669;28;20588;-71
2021/09/27 00:38:17;;;;;;;9.27;7.40;;;;;;;18.89;nan;101055.63;5052796;28;20176;-72
2021/09/27 00:40:47;;;;;;;9.50;7.63;;;;;;;18.94;nan;101050.69;5052428;28;20215;-71
2021/09/27 00:43:13;;;;;;;7.93;7.13;;;;;;;18.90;nan;101057.34;5051277;28;20213;-71
2021/09/27 00:45:47;;;;;;;9.07;7.63;;;;;;;19.13;nan;101053.56;5051882;28;20181;-70
2021/09/27 00:48:12;;;;;;;9.73;8.27;;;;;;;18.91;nan;101051.81;5052337;28;20187;-71
2021/09/27 00:50:41;;;;;;;9.57;7.40;;;;;;;18.89;nan;101053.78;5052242;28;20246;-70
2021/09/27 00:53:22;;;;;;;8.13;7.27;;;;;;;18.70;nan;101054.50;5051209;28;20175;-71
2021/09/27 00:55:47;;;;;;;12.43;7.60;;;;;;;18.80;nan;101051.00;5051633;28;20160;-71
2021/09/27 00:58:13;;;;;;;12.10;7.77;;;;;;;18.72;nan;101040.84;5051141;28;20206;-71
2021/09/27 01:00:38;;;;;;;9.00;7.47;;;;;;;18.79;nan;101047.44;5050791;28;20764;-70
2021/09/27 01:03:04;;;;;;;9.13;7.40;;;;;;;18.74;nan;101046.97;5052113;28;20191;-70
2021/09/27 01:05:29;;;;;;;11.57;7.47;;;;;;;18.88;nan;101040.41;5054346;28;20171;-70
2021/09/27 01:08:13;;;;;;;9.57;7.67;;;;;;;18.90;nan;101044.69;5055135;28;20266;-70
2021/09/27 01:11:04;;;;;;;9.13;7.80;;;;;;;19.11;nan;101044.72;5054591;28;20249;-71
2021/09/27 01:13:50;;;;;;;8.10;7.17;;;;;;;19.01;nan;101052.78;5054360;28;20646;-70
2021/09/27 01:16:37;;;;;;;9.63;7.13;;;;;;;18.87;nan;101039.53;5055906;28;20225;-70
2021/09/27 01:19:40;;;;;;;8.03;7.23;;;;;;;18.84;nan;101039.81;5054326;28;20201;-71
2021/09/27 01:22:47;;;;;;;9.03;7.53;;;;;;;18.86;nan;101037.81;5055567;28;20221;-71
2021/09/27 01:25:50;;;;;;;10.03;7.50;;;;;;;19.04;nan;101030.88;5054499;28;20164;-70
2021/09/27 01:28:37;;;;;;;9.37;7.13;;;;;;;18.59;nan;101026.63;5055453;28;20514;-71
2021/09/27 01:31:16;;;;;;;7.73;6.70;;;;;;;18.68;nan;101026.72;5054166;28;20205;-70
2021/09/27 01:33:59;;;;;;;8.17;7.03;;;;;;;18.46;nan;101020.50;5054731;28;20159;-70
2021/09/27 01:36:30;;;;;;;10.07;6.97;;;;;;;18.57;nan;101028.56;5055936;28;20171;-71
2021/09/27 01:39:12;;;;;;;7.93;7.17;;;;;;;18.48;nan;101032.03;5054905;28;20163;-71
2021/09/27 01:41:58;;;;;;;8.57;7.20;;;;;;;18.70;nan;101042.81;5055181;28;20156;-71
2021/09/27 01:44:23;;;;;;;8.10;7.30;;;;;;;18.58;nan;101043.78;5037697;28;20531;-71
2021/09/27 01:46:55;;;;;;;9.57;7.53;;;;;;;18.55;nan;101047.59;5055567;28;20226;-71
2021/09/27 01:49:23;;;;;;;7.67;6.87;;;;;;;18.54;nan;101055.84;5054007;28;20554;-71
2021/09/27 01:52:08;;;;;;;11.53;7.47;;;;;;;18.42;nan;101055.03;5053585;28;20665;-70
2021/09/27 01:54:42;;;;;;;9.07;7.17;;;;;;;18.49;nan;101061.63;5053690;28;20156;-70
2021/09/27 01:57:26;;;;;;;8.13;6.80;;;;;;;18.70;nan;101046.38;5053899;28;20162;-71
2021/09/27 02:00:03;;;;;;;9.67;8.17;;;;;;;18.32;nan;101048.66;5053404;28;20210;-70
2021/09/27 02:02:35;;;;;;;8.50;7.00;;;;;;;18.29;nan;101035.41;5053905;28;20191;-70
2021/09/27 02:05:11;;;;;;;9.50;6.97;;;;;;;18.49;nan;101037.31;5053654;28;20597;-69
2021/09/27 02:07:42;;;;;;;8.37;6.40;;;;;;;18.31;nan;101028.88;5053501;28;20160;-71
2021/09/27 02:10:15;;;;;;;6.90;6.20;;;;;;;18.35;nan;101043.88;5053781;28;20194;-71
2021/09/27 02:12:45;;;;;;;9.10;5.90;;;;;;;18.21;nan;101036.03;5053364;28;20159;-70
2021/09/27 02:15:15;;;;;;;12.20;6.70;;;;;;;18.27;nan;101043.63;5053011;28;20163;-70
2021/09/27 02:17:50;;;;;;;7.10;5.70;;;;;;;18.51;nan;101050.69;5053574;28;20155;-70
2021/09/27 02:20:34;;;;;;;6.33;5.57;;;;;;;18.54;nan;101042.31;5053626;28;20704;-70
2021/09/27 02:23:12;;;;;;;10.40;6.20;;;;;;;18.39;nan;101042.63;5053125;28;20577;-70
2021/09/27 02:25:40;;;;;;;7.63;5.90;;;;;;;18.64;nan;101043.34;5053189;28;20359;-71
2021/09/27 02:28:18;;;;;;;6.03;5.43;;;;;;;18.56;nan;101051.16;5053072;28;20667;-71
2021/09/27 02:30:50;;;;;;;8.47;6.20;;;;;;;18.92;nan;101056.25;5053066;28;20237;-71
2021/09/27 02:33:26;;;;;;;8.70;5.87;;;;;;;18.57;nan;101048.34;5053443;28;20166;-71
2021/09/27 02:35:59;;;;;;;9.00;5.90;;;;;;;18.69;nan;101063.59;5054423;28;20155;-71
2021/09/27 02:38:28;;;;;;;5.93;5.33;;;;;;;18.80;nan;101053.72;5054484;28;20610;-71
2021/09/27 02:41:02;;;;;;;7.03;5.50;;;;;;;18.67;nan;101046.66;5054038;28;20213;-71
2021/09/27 02:43:27;;;;;;;7.53;5.97;;;;;;;18.64;nan;101052.31;5052880;28;20581;-71
2021/09/27 02:45:54;;;;;;;6.10;5.33;;;;;;;18.63;nan;101057.84;5052849;28;20164;-71
2021/09/27 02:48:38;;;;;;;5.90;5.30;;;;;;;18.49;nan;101058.94;5052690;28;20263;-71
2021/09/27 02:51:04;;;;;;;6.10;5.13;;;;;;;18.39;nan;101058.84;5052742;28;20753;-71
2021/09/27 02:53:29;;;;;;;6.10;5.03;;;;;;;18.50;nan;101041.72;5052916;28;20250;-71
2021/09/27 02:56:30;;;;;;;7.33;5.67;;;;;;;18.08;nan;101035.28;5053764;28;20672;-71
2021/09/27 02:59:15;;;;;;;6.03;5.43;;;;;;;18.52;nan;101047.00;5071449;28;20191;-71
2021/09/27 03:02:09;;;;;;;6.00;5.40;;;;;;;18.01;nan;101043.03;5088557;23;20234;-68
2021/09/27 03:05:16;;;;;;;6.53;5.60;;;;;;;18.01;nan;101044.88;5040264;28;20625;-68
2021/09/27 03:07:56;;;;;;;7.00;6.13;;;;;;;18.01;nan;101050.28;5055975;28;20155;-69
2021/09/27 03:10:21;;;;;;;6.70;5.90;;;;;;;17.97;nan;101043.41;5056205;28;20186;-68
2021/09/27 03:13:18;;;;;;;7.40;5.63;;;;;;;18.35;nan;101049.25;5073810;28;20193;-68
2021/09/27 03:16:12;;;;;;;9.40;6.20;;;;;;;17.74;nan;101048.81;5055947;28;20190;-68
2021/09/27 03:19:01;;;;;;;9.67;6.47;;;;;;;17.79;nan;101046.59;5073390;28;20220;-68
2021/09/27 03:21:43;;;;;;;8.13;6.77;;;;;;;17.82;nan;101045.47;5055538;28;20202;-68
2021/09/27 03:24:17;;;;;;;7.57;6.50;;;;;;;17.75;nan;101050.53;5038901;28;20197;-68
2021/09/27 03:26:49;;;;;;;9.40;7.17;;;;;;;17.69;nan;101037.50;5055663;28;20624;-68
2021/09/27 03:29:51;;;;;;;7.77;6.97;;;;;;;17.73;nan;101035.44;5073619;28;20525;-68
2021/09/27 03:32:40;;;;;;;7.63;6.57;;;;;;;17.63;nan;101040.69;5073573;28;20635;-69
2021/09/27 03:35:10;;;;;;;7.50;6.70;;;;;;;17.57;nan;101041.16;5055807;28;20601;-68
2021/09/27 03:37:44;;;;;;;8.13;7.13;;;;;;;17.42;nan;101050.44;5055554;28;20170;-68
2021/09/27 03:40:21;;;;;;;9.33;7.10;;;;;;;17.09;nan;101051.22;5055297;28;20199;-68
2021/09/27 03:42:50;;;;;;;8.20;7.40;;;;;;;17.25;nan;101050.91;5073154;28;20186;-69
2021/09/27 03:45:19;;;;;;;10.00;7.77;;;;;;;17.08;nan;101049.50;5055244;28;20185;-69
2021/09/27 03:47:54;;;;;;;9.07;7.20;;;;;;;17.12;nan;101035.69;5055134;28;20174;-69
2021/09/27 03:50:32;;;;;;;14.07;7.97;;;;;;;17.04;nan;101042.63;5055949;28;20269;-69
2021/09/27 03:53:02;;;;;;;8.90;6.93;;;;;;;16.94;nan;101042.47;5055236;28;20674;-69
2021/09/27 03:55:35;;;;;;;9.07;7.13;;;;;;;17.07;nan;101036.97;5055110;28;20557;-68
2021/09/27 03:58:07;;;;;;;8.40;7.60;;;;;;;17.04;nan;101037.22;5055807;28;20528;-69
2021/09/27 04:01:01;;;;;;;10.23;8.30;;;;;;;17.06;nan;101029.88;5054897;28;20205;-68
2021/09/27 04:03:42;;;;;;;10.67;8.23;;;;;;;17.17;nan;101028.09;5055048;28;20183;-68
2021/09/27 04:06:32;;;;;;;8.90;7.83;;;;;;;17.15;nan;101026.50;5054866;28;20185;-67
2021/09/27 04:09:06;;;;;;;9.83;8.33;;;;;;;17.22;nan;101025.03;5065661;28;20265;-68
2021/09/27 04:11:45;;;;;;;10.07;8.70;;;;;;;17.35;nan;101030.31;5055299;28;20252;-68
2021/09/27 04:14:40;;;;;;;15.33;8.70;;;;;;;17.52;nan;101031.72;5054920;28;20162;-68
2021/09/27 04:17:32;;;;;;;11.30;8.33;;;;;;;17.61;nan;101026.44;5072805;28;20234;-68
2021/09/27 04:20:04;;;;;;;12.37;8.50;;;;;;;17.75;nan;101017.28;5038177;28;20282;-68
2021/09/27 04:22:35;;;;;;;11.67;8.67;;;;;;;17.62;nan;101024.59;5055056;28;20214;-68
2021/09/27 04:25:18;;;;;;;14.00;8.57;;;;;;;17.71;nan;101021.19;5054752;28;20191;-68
2021/09/27 04:28:01;;;;;;;12.43;8.60;;;;;;;17.57;nan;101027.66;5072915;28;20178;-68
2021/09/27 04:30:55;;;;;;;12.67;8.83;;;;;;;17.54;nan;101038.72;5073020;28;20213;-68
2021/09/27 04:33:28;;;;;;;10.83;8.40;;;;;;;17.31;nan;101034.25;5055386;28;20182;-68
2021/09/27 04:36:13;;;;;;;10.87;8.80;;;;;;;17.35;nan;101033.88;5055473;28;20163;-68
2021/09/27 04:38:38;;;;;;;11.63;9.03;;;;;;;17.28;nan;101031.78;5073373;28;20159;-69
2021/09/27 04:41:13;;;;;;;10.53;8.50;;;;;;;17.39;nan;101029.09;5059258;28;20247;-69
2021/09/27 04:44:21;;;;;;;12.10;9.03;;;;;;;17.21;nan;101031.41;5077243;28;20190;-69
2021/09/27 04:46:57;;;;;;;12.63;9.10;;;;;;;17.29;nan;101047.00;5077304;28;20171;-68
2021/09/27 04:49:41;;;;;;;13.03;8.70;;;;;;;17.31;nan;101036.94;5076665;28;20172;-68
2021/09/27 04:52:47;;;;;;;12.67;8.43;;;;;;;17.29;nan;101047.00;5058855;28;20167;-69
2021/09/27 04:55:36;;;;;;;11.70;9.07;;;;;;;17.43;nan;101054.84;5076869;28;20166;-68
2021/09/27 04:58:24;;;;;;;10.37;8.33;;;;;;;17.39;nan;101043.44;5076571;28;20163;-68
2021/09/27 05:01:07;;;;;;;10.67;9.30;;;;;;;17.39;nan;101042.59;5058632;28;20441;-68
2021/09/27 05:04:07;;;;;;;13.60;9.20;;;;;;;17.45;nan;101036.72;5058817;28;20187;-68
2021/09/27 05:06:53;;;;;;;11.73;9.47;;;;;;;17.27;nan;101041.72;5047365;28;20214;-66
2021/09/27 05:09:42;;;;;;;11.93;8.70;;;;;;;17.31;nan;101047.72;5057950;28;20253;-65
2021/09/27 05:12:20;;;;;;;12.10;9.33;;;;;;;17.36;nan;101048.22;5058520;28;20573;-66
2021/09/27 05:14:58;;;;;;;15.50;9.00;;;;;;;17.51;nan;101033.56;5058028;28;20155;-65
2021/09/27 05:17:33;;;;;;;11.50;9.00;;;;;;;17.44;nan;101030.44;5075898;28;20171;-65
2021/09/27 05:20:18;;;;;;;13.03;8.10;;;;;;;17.91;nan;101033.13;5058013;28;20272;-65
2021/09/27 05:22:51;;;;;;;13.47;9.10;;;;;;;17.74;nan;101031.75;5058117;28;20175;-64
2021/09/27 05:25:39;;;;;;;18.97;9.20;;;;;;;17.56;nan;101033.19;5058098;28;20224;-66
2021/09/27 05:28:17;;;;;;;11.70;8.77;;;;;;;17.73;nan;101035.44;5076256;28;20474;-66
2021/09/27 05:30:51;;;;;;;15.37;8.83;;;;;;;17.45;nan;101040.25;5057772;28;20268;-65
2021/09/27 05:33:38;;;;;;;13.40;9.23;;;;;;;17.35;nan;101038.41;5058230;28;20640;-63
2021/09/27 05:36:38;;;;;;;20.60;8.63;;;;;;;17.47;nan;101034.78;5075671;28;20193;-68
2021/09/27 05:39:31;;;;;;;12.07;8.70;;;;;;;17.39;nan;101039.88;5075934;28;20517;-67
2021/09/27 05:42:11;;;;;;;10.77;8.47;;;;;;;17.71;nan;101040.94;5057456;28;20637;-68
2021/09/27 05:45:06;;;;;;;14.40;8.70;;;;;;;17.86;nan;101038.03;5057435;28;20163;-67
2021/09/27 05:47:52;;;;;;;10.67;8.70;;;;;;;17.84;nan;101040.84;5056371;28;20682;-68
2021/09/27 05:50:27;;;;;;;11.27;8.00;;;;;;;17.69;nan;101045.63;5056193;28;20213;-68
2021/09/27 05:53:22;;;;;;;10.73;8.23;;;;;;;17.62;nan;101044.34;5040889;28;20162;-68
2021/09/27 05:56:27;;;;;;;17.40;8.80;;;;;;;17.80;nan;101036.66;5057516;28;20364;-68
2021/09/27 05:59:03;;;;;;;12.90;8.03;;;;;;;17.62;nan;101036.25;5044341;28;20186;-68
2021/09/27 06:01:52;;;;;;;10.97;8.00;;;;;;;17.68;nan;101026.84;5040391;28;20211;-69
2021/09/27 06:04:26;;;;;;;9.43;8.00;;;;;;;18.07;nan;101028.19;5058053;28;20179;-68
2021/09/27 06:07:06;;;;;;;9.93;7.70;;;;;;;18.13;nan;101039.34;5075222;28;20174;-68
2021/09/27 06:09:53;;;;;;;11.40;7.87;;;;;;;17.91;nan;101028.56;5057563;28;20628;-68
2021/09/27 06:12:29;;;;;;;14.00;8.67;;;;;;;18.00;nan;101026.97;5057339;28;20537;-68
2021/09/27 06:14:57;;;;;;;11.53;8.40;;;;;;;17.78;nan;101036.78;5057227;28;20544;-68
2021/09/27 06:17:43;;;;;;;11.43;8.20;;;;;;;18.08;nan;101038.00;5057349;28;20198;-68
2021/09/27 06:20:15;;;;;;;11.57;8.07;;;;;;;18.18;nan;101040.81;5074903;28;20199;-67
2021/09/27 06:23:03;;;;;;;12.07;8.33;;;;;;;18.13;nan;101030.38;5056938;28;20249;-68
2021/09/27 06:25:48;;;;;;;12.80;8.30;;;;;;;18.24;nan;101041.19;5056872;28;20533;-68
2021/09/27 06:28:25;;;;;;;9.23;8.20;;;;;;;18.30;nan;101031.72;5056930;28;20166;-67
2021/09/27 06:31:16;;;;;;;10.77;8.53;;;;;;;18.36;nan;101042.03;5074630;28;20241;-67
2021/09/27 06:34:02;;;;;;;9.70;7.63;;;;;;;18.18;nan;101030.84;5074439;28;20160;-69
2021/09/27 06:36:30;;;;;;;12.00;7.83;;;;;;;18.32;nan;101035.16;5056842;28;20260;-68
2021/09/27 06:38:58;;;;;;;11.50;7.80;;;;;;;18.77;nan;101038.63;5056630;28;20286;-68
2021/09/27 06:41:26;;;;;;;10.73;8.13;;;;;;;18.67;nan;101033.13;5056381;28;20198;-67
2021/09/27 06:43:52;;;;;;;13.37;7.23;;;;;;;18.69;nan;101027.59;5074265;28;20199;-69
2021/09/27 06:46:17;;;;;;;9.33;7.87;;;;;;;18.17;nan;101029.13;5056582;28;20578;-69
2021/09/27 06:48:42;;;;;;;8.57;7.30;;;;;;;18.53;nan;101044.19;5074051;28;20665;-69
2021/09/27 06:51:08;;;;;;;9.90;7.43;;;;;;;18.63;nan;101042.47;5073814;28;20198;-68
2021/09/27 06:53:33;;;;;;;10.67;8.20;;;;;;;18.49;nan;101044.56;5073711;28;20171;-67
2021/09/27 06:55:59;;;;;;;9.57;8.47;;;;;;;18.48;nan;101041.00;5055581;28;20175;-68
2021/09/27 06:58:25;;;;;;;10.67;7.77;;;;;;;18.38;nan;101050.84;5055280;28;20173;-67
2021/09/27 07:00:51;;;;;;;9.33;8.30;;;;;;;18.49;nan;101044.56;5054764;28;20211;-67
2021/09/27 07:03:16;;;;;;;13.87;8.97;;;;;;;18.60;nan;101031.88;5054206;28;20194;-67
2021/09/27 07:05:41;;;;;;;9.77;8.17;;;;;;;18.67;nan;101049.34;5072752;28;20664;-67
2021/09/27 07:08:07;;;;;;;10.03;8.33;;;;;;;18.84;nan;101044.34;5072959;28;20589;-68
2021/09/27 07:10:32;;;;;;;13.13;8.20;;;;;;;18.71;nan;101040.00;5072728;28;20205;-67
2021/09/27 07:12:57;;;;;;;14.53;8.83;;;;;;;18.76;nan;101039.59;5072459;28;20195;-67
2021/09/27 07:15:23;;;;;;;13.67;8.10;;;;;;;18.80;nan;101032.09;5072537;28;20702;-69
2021/09/27 07:17:48;;;;;;;10.60;7.87;;;;;;;19.16;nan;101026.25;5072664;28;20537;-67
2021/09/27 07:20:20;;;;;;;10.23;8.83;;;;;;;19.11;nan;101030.34;5072238;28;20225;-68
2021/09/27 07:22:46;;;;;;;13.53;8.17;;;;;;;19.02;nan;101038.25;5073176;28;20217;-68
2021/09/27 07:25:13;;;;;;;9.63;7.83;;;;;;;19.52;nan;101041.16;5072370;28;20540;-67
2021/09/27 07:27:38;;;;;;;9.83;7.60;;;;;;;19.42;nan;101028.56;5072268;28;20171;-68
2021/09/27 07:30:05;;;;;;;9.87;7.67;;;;;;;19.58;nan;101028.97;5054408;28;20264;-67
2021/09/27 07:32:30;;;;;;;10.30;8.23;;;;;;;19.61;nan;101020.56;5054514;28;20171;-68
2021/09/27 07:34:56;;;;;;;10.43;8.10;;;;;;;19.46;nan;101020.03;5072266;28;20641;-68
2021/09/27 07:37:21;;;;;;;10.60;8.17;;;;;;;19.99;nan;101014.47;5037815;28;20179;-68
2021/09/27 07:39:46;;;;;;;9.83;7.67;;;;;;;20.14;nan;101017.66;5072681;28;20249;-67
2021/09/27 07:42:11;;;;;;;11.67;7.87;;;;;;;19.95;nan;101013.88;5072452;28;20202;-67
2021/09/27 07:44:37;;;;;;;10.37;7.43;;;;;;;20.30;nan;101016.13;5072418;28;20739;-69
2021/09/27 07:47:03;;;;;;;10.97;7.13;;;;;;;20.18;nan;101017.25;5054479;28;20224;-68
2021/09/27 07:49:29;;;;;;;10.00;7.47;;;;;;;20.28;nan;101028.97;5072392;28;20174;-68
2021/09/27 07:51:57;;;;;;;9.57;7.30;;;;;;;20.87;nan;101019.09;5054337;28;20561;-68
2021/09/27 07:54:22;;;;;;;11.10;7.63;;;;;;;20.74;nan;101000.38;5072867;28;20259;-68
2021/09/27 07:56:47;;;;;;;9.93;7.73;;;;;;;20.05;nan;101008.50;5054935;28;20254;-67
2021/09/27 07:59:12;;;;;;;12.27;8.20;;;;;;;19.85;nan;101014.84;5072245;28;20178;-67
2021/09/27 08:01:38;;;;;;;11.77;8.00;;;;;;;19.61;nan;100999.78;5020714;28;981046;-68
2021/09/27 08:04:03;;;;;;;10.27;7.37;;;;;;;19.54;nan;101004.00;5073036;28;20202;-68
2021/09/27 08:06:28;;;;;;;8.87;7.83;;;;;;;19.93;nan;101005.03;5072891;28;20244;-68
2021/09/27 08:08:54;;;;;;;8.70;7.50;;;;;;;19.78;nan;101010.97;5055334;28;20178;-68
2021/09/27 08:11:19;;;;;;;8.87;7.23;;;;;;;19.75;nan;101020.22;5072809;28;20209;-68
2021/09/27 08:13:45;;;;;;;11.63;8.20;;;;;;;19.79;nan;101010.84;5073629;28;20196;-67
2021/09/27 08:16:10;;;;;;;10.80;8.70;;;;;;;19.81;nan;101010.72;5059149;28;20217;-67
2021/09/27 08:18:36;;;;;;;11.10;7.80;;;;;;;19.43;nan;100998.66;5077280;28;20216;-68
2021/09/27 08:21:08;;;;;;;10.00;7.73;;;;;;;19.68;nan;100997.38;5059319;28;20596;-68
2021/09/27 08:23:34;;;;;;;13.83;8.03;;;;;;;19.74;nan;101009.53;5059653;28;20518;-67
2021/09/27 08:25:59;;;;;;;12.13;8.80;;;;;;;19.51;nan;100998.84;5059085;28;20212;-68
2021/09/27 08:28:26;;;;;;;12.20;8.20;;;;;;;20.01;nan;101004.34;5059279;28;20175;-68
2021/09/27 08:30:56;;;;;;;10.60;8.70;;;;;;;19.93;nan;101017.72;5076968;28;20564;-68
2021/09/27 08:33:22;;;;;;;12.07;9.10;;;;;;;20.20;nan;101009.84;5077058;28;20521;-67
2021/09/27 08:35:49;;;;;;;10.53;8.43;;;;;;;20.36;nan;101008.44;5058702;28;20257;-67
2021/09/27 08:38:15;;;;;;;10.53;8.40;;;;;;;19.99;nan;100996.34;5076547;28;20185;-68
2021/09/27 08:40:52;;;;;;;12.73;8.00;;;;;;;20.49;nan;101014.50;5058971;28;20197;-68
2021/09/27 08:43:30;;;;;;;12.60;8.70;;;;;;;19.71;nan;100997.13;5076853;28;20240;-68
2021/09/27 08:46:00;;;;;;;10.10;8.97;;;;;;;20.17;nan;101003.84;5077030;28;20602;-68
2021/09/27 08:48:32;;;;;;;10.50;8.47;;;;;;;20.22;nan;101005.13;5059047;28;20201;-68
2021/09/27 08:50:57;;;;;;;10.77;8.90;;;;;;;20.62;nan;101011.50;5058914;28;20213;-68
2021/09/27 08:53:31;;;;;;;13.23;8.27;;;;;;;20.82;nan;101029.53;5058915;28;20210;-68
2021/09/27 08:56:03;;;;;;;11.17;8.83;;;;;;;20.32;nan;101016.00;5076835;28;20162;-68
2021/09/27 08:58:37;;;;;;;15.80;8.73;;;;;;;20.50;nan;101035.19;5058668;28;20270;-68
2021/09/27 09:01:08;;;;;;;10.63;8.10;;;;;;;20.53;nan;101026.78;5081332;23;20234;-75
2021/09/27 09:04:15;;;;;;;11.80;9.07;;;;;;;20.11;nan;101016.09;5058175;28;20191;-75
2021/09/27 09:06:45;;;;;;;9.87;8.60;;;;;;;20.30;nan;101018.84;5040849;28;20618;-75
2021/09/27 09:09:15;;;;;;;11.73;8.30;;;;;;;20.79;nan;101036.06;5041882;28;20292;-75
2021/09/27 09:12:00;;;;;;;12.13;8.43;;;;;;;20.66;nan;101030.06;5057987;28;20672;-75
2021/09/27 09:14:37;;;;;;;13.37;8.70;;;;;;;20.51;nan;101029.63;5057947;28;20163;-76
2021/09/27 09:17:16;;;;;;;14.33;9.10;;;;;;;20.51;nan;101036.91;5057751;28;20648;-75
2021/09/27 09:19:42;;;;;;;12.80;8.70;;;;;;;20.57;nan;101045.31;5058281;28;20605;-76
2021/09/27 09:22:23;;;;;;;11.43;9.03;;;;;;;20.88;nan;101031.66;5040996;28;20198;-75
2021/09/27 09:24:49;;;;;;;12.23;8.07;;;;;;;21.55;nan;101033.44;5057746;28;20305;-75
2021/09/27 09:27:15;;;;;;;10.53;8.37;;;;;;;21.81;nan;101020.06;5075486;28;20262;-76
2021/09/27 09:29:43;;;;;;;12.00;9.50;;;;;;;21.28;nan;101020.66;5075261;28;20171;-75
2021/09/27 09:32:22;;;;;;;13.33;9.00;;;;;;;20.87;nan;101009.09;5057758;28;20355;-76
2021/09/27 09:34:49;;;;;;;10.17;8.80;;;;;;;21.05;nan;101013.78;5057757;28;20175;-75
2021/09/27 09:37:39;;;;;;;12.00;8.97;;;;;;;21.29;nan;101011.50;5057411;28;20654;-76
2021/09/27 09:40:14;;;;;;;10.53;8.47;;;;;;;22.00;nan;101002.84;5057590;28;20182;-76
2021/09/27 09:42:39;;;;;;;9.50;8.30;;;;;;;21.60;nan;101005.84;5075654;28;20194;-76
2021/09/27 09:45:15;;;;;;;10.27;8.23;;;;;;;21.85;nan;100997.03;5075723;28;20181;-75
2021/09/27 09:47:41;;;;;;;14.50;8.47;;;;;;;22.10;nan;101003.66;5075261;28;20170;-76
2021/09/27 09:50:14;;;;;;;13.50;8.50;;;;;;;22.10;nan;100992.78;5057011;28;20171;-75
2021/09/27 09:52:46;;;;;;;13.97;8.30;;;;;;;21.80;nan;100975.75;5057709;28;20560;-76
2021/09/27 09:55:45;;;;;;;11.40;8.77;;;;;;;22.13;nan;100993.34;5057075;28;20171;-75
2021/09/27 09:58:14;;;;;;;9.20;8.03;;;;;;;22.41;nan;100998.75;5073472;28;20660;-76
2021/09/27 10:00:54;;;;;;;11.37;7.90;;;;;;;23.44;nan;101010.91;5039766;28;20572;-76
2021/09/27 10:03:35;;;;;;;11.27;7.53;;;;;;;23.11;nan;100988.91;5057269;28;20210;-76
2021/09/27 10:06:04;;;;;;;14.73;8.17;;;;;;;23.19;nan;100993.53;5056659;28;20572;-76
2021/09/27 10:08:30;;;;;;;9.43;8.43;;;;;;;23.04;nan;100968.75;5057245;28;20629;-76
2021/09/27 10:10:59;;;;;;;11.50;8.70;;;;;;;22.86;nan;100985.09;5056810;28;20202;-75
2021/09/27 10:13:35;;;;;;;12.10;8.20;;;;;;;23.55;nan;100988.84;5056791;28;20175;-75
2021/09/27 10:16:02;;;;;;;11.73;8.83;;;;;;;24.07;nan;100980.59;5074836;28;20163;-75
2021/09/27 10:18:37;;;;;;;12.37;9.10;;;;;;;23.64;nan;100974.28;5056977;28;20175;-76
2021/09/27 10:21:25;;;;;;;13.87;7.93;;;;;;;24.22;nan;100963.47;5074256;28;20687;-75
2021/09/27 10:23:55;;;;;;;12.67;9.03;;;;;;;24.53;nan;100971.91;5056742;28;20244;-74
2021/09/27 10:26:34;;;;;;;11.17;9.37;;;;;;;24.64;nan;100973.44;5074297;28;20540;-75
2021/09/27 10:29:04;;;;;;;12.53;9.50;;;;;;;24.20;nan;100967.38;5056604;28;20223;-75
2021/09/27 10:31:29;;;;;;;11.03;8.43;;;;;;;24.93;nan;100970.22;5056824;28;20193;-75
2021/09/27 10:34:00;;;;;;;13.50;9.43;;;;;;;24.37;nan;100955.50;5074418;28;20640;-75
2021/09/27 10:36:28;;;;;;;10.73;8.77;;;;;;;24.26;nan;100972.16;5055667;28;20170;-75
2021/09/27 10:38:58;;;;;;;11.17;9.97;;;;;;;23.75;nan;100965.81;5074384;28;20629;-75
2021/09/27 10:41:28;;;;;;;16.13;10.27;;;;;;;23.66;nan;100980.41;5056515;28;20572;-75
2021/09/27 10:43:58;;;;;;;10.90;9.07;;;;;;;23.67;nan;100984.84;5056745;28;20198;-75
2021/09/27 10:46:33;;;;;;;12.93;9.57;;;;;;;23.50;nan;100977.59;5074474;28;20155;-76
2021/09/27 10:48:59;;;;;;;10.93;8.93;;;;;;;23.26;nan;100954.63;5074545;28;20242;-75
2021/09/27 10:51:30;;;;;;;14.43;9.53;;;;;;;23.61;nan;100971.88;5055881;28;20282;-75
2021/09/27 10:54:14;;;;;;;14.17;10.60;;;;;;;22.68;nan;100944.28;5056043;28;20608;-75
2021/09/27 10:56:49;;;;;;;15.33;10.33;;;;;;;22.96;nan;100952.34;5056540;28;20201;-75
2021/09/27 10:59:53;;;;;;;10.07;8.70;;;;;;;23.26;nan;100965.50;5055560;28;20161;-74
2021/09/27 11:02:26;;;;;;;11.73;9.13;;;;;;;23.26;nan;100954.63;5073185;28;20202;-75
2021/09/27 11:05:03;;;;;;;15.50;8.83;;;;;;;23.07;nan;100961.13;5055927;28;20249;-76
2021/09/27 11:07:35;;;;;;;11.97;8.80;;;;;;;23.54;nan;100952.59;5039087;28;20258;-75
2021/09/27 11:10:01;;;;;;;9.00;8.00;;;;;;;23.09;nan;100944.66;5073624;28;20163;-75
2021/09/27 11:12:38;;;;;;;12.67;9.20;;;;;;;22.52;nan;100944.13;5073496;28;20195;-75
2021/09/27 11:15:12;;;;;;;12.90;9.30;;;;;;;22.84;nan;100959.06;5056161;28;20194;-75
2021/09/27 11:17:46;;;;;;;15.97;8.40;;;;;;;23.05;nan;100952.28;5060402;28;20159;-75
2021/09/27 11:20:14;;;;;;;12.27;9.40;;;;;;;22.38;nan;100948.25;5073649;28;20513;-75
2021/09/27 11:22:54;;;;;;;15.83;9.33;;;;;;;22.53;nan;100958.59;5073278;28;20568;-75
2021/09/27 11:25:22;;;;;;;13.27;9.83;;;;;;;22.28;nan;100954.75;5073819;28;20173;-75
2021/09/27 11:28:24;;;;;;;11.43;9.27;;;;;;;22.31;nan;100958.03;5055490;28;20242;-76
2021/09/27 11:30:58;;;;;;;11.17;9.30;;;;;;;22.06;nan;100959.63;5076366;28;20198;-75
2021/09/27 11:33:26;;;;;;;11.53;8.33;;;;;;;22.21;nan;100978.13;5076768;28;20170;-75
2021/09/27 11:35:51;;;;;;;12.03;9.70;;;;;;;21.68;nan;100960.66;5056569;28;20182;-76
2021/09/27 11:38:19;;;;;;;10.00;8.77;;;;;;;22.27;nan;100972.94;5057018;28;20548;-76
2021/09/27 11:40:52;;;;;;;11.87;8.83;;;;;;;22.22;nan;100961.66;5055701;28;20213;-77
2021/09/27 11:43:20;;;;;;;9.83;8.47;;;;;;;22.76;nan;100960.69;5056313;28;20184;-76
2021/09/27 11:45:53;;;;;;;11.70;9.37;;;;;;;22.92;nan;100961.84;5073299;28;20175;-75
2021/09/27 11:48:18;;;;;;;11.57;9.07;;;;;;;23.02;nan;100968.91;5073179;28;20208;-76
2021/09/27 11:50:53;;;;;;;17.90;9.47;;;;;;;22.56;nan;100953.69;5072915;28;20187;-76
2021/09/27 11:53:35;;;;;;;13.33;8.80;;;;;;;22.57;nan;100966.28;5073090;28;20166;-76
2021/09/27 11:56:10;;;;;;;12.20;8.73;;;;;;;22.37;nan;100953.84;5054817;28;20174;-76
2021/09/27 11:58:42;;;;;;;10.70;8.63;;;;;;;22.90;nan;100947.53;5073542;28;20173;-76
2021/09/27 12:01:20;;;;;;;11.93;9.40;;;;;;;22.64;nan;100934.72;5054873;28;20261;-76
2021/09/27 12:04:13;;;;;;;11.00;8.70;;;;;;;22.48;nan;100920.13;5054978;28;20187;-76
2021/09/27 12:06:42;;;;;;;12.67;9.13;;;;;;;22.66;nan;100926.38;5038953;28;20202;-76
2021/09/27 12:09:13;;;;;;;12.00;8.87;;;;;;;23.09;nan;100931.03;5055869;28;20228;-77
2021/09/27 12:11:51;;;;;;;12.70;9.90;;;;;;;22.60;nan;100922.44;5038839;28;20298;-76
2021/09/27 12:14:25;;;;;;;14.83;10.20;;;;;;;22.58;nan;100924.47;5055375;28;20191;-76